Scotlandville, Louisiana
Current Conditions -  °F | °C
As of 10:53 AM on Saturday 25 Oct 2014 (Local Time) from KBTR Reporting Station
Clear Clear  
Wind Chill: 72°   Ceiling: Unl
Heat Index: 72°   Visibility: 10mi
Dew Point: 52°   Wind: 6mph
Humidity: 49%   Direction: 40°NE
Pressure: 30.18"   Gusts: NA
Location:  30.5305°N, 91.1163°W
Report Text: KBTR 251553Z 04005KT 10SM CLR 22/11 A3018 RMK AO2 SLP218 T02220111
Loading
Personal Weather Stations






























Interactive Weather Map
Tropical Storm Tracking
New forecast layout! Learn more

10-Day Weather Forecast

Advertisements
Track Severe Weather on mobile